sensor_id;sensor_type;location;lat;lon;timestamp;temperature;humidity
19654;DHT22;9975;48.046;7.804;2023-10-09T07:45:56;9.30;99.90
19654;DHT22;9975;48.046;7.804;2023-10-09T07:48:22;11.50;99.90
19654;DHT22;9975;48.046;7.804;2023-10-09T07:50:51;11.50;99.90
19654;DHT22;9975;48.046;7.804;2023-10-09T07:53:25;11.60;99.90
19654;DHT22;9975;48.046;7.804;2023-10-09T07:55:55;11.70;99.90
19654;DHT22;9975;48.046;7.804;2023-10-09T07:58:26;11.70;99.90
19654;DHT22;9975;48.046;7.804;2023-10-09T08:38:13;11.80;99.90
19654;DHT22;9975;48.046;7.804;2023-10-09T08:40:43;13.80;99.90
19654;DHT22;9975;48.046;7.804;2023-10-09T08:43:18;14.00;99.90
19654;DHT22;9975;48.046;7.804;2023-10-09T08:45:53;14.20;99.90
19654;DHT22;9975;48.046;7.804;2023-10-09T08:48:20;14.40;99.90
19654;DHT22;9975;48.046;7.804;2023-10-09T08:50:52;14.70;99.90
19654;DHT22;9975;48.046;7.804;2023-10-09T08:53:22;14.90;99.90
19654;DHT22;9975;48.046;7.804;2023-10-09T08:55:56;15.10;99.90
19654;DHT22;9975;48.046;7.804;2023-10-09T08:58:24;15.40;99.90
19654;DHT22;9975;48.046;7.804;2023-10-09T09:00:58;15.60;99.90
19654;DHT22;9975;48.046;7.804;2023-10-09T09:03:25;15.90;99.90
19654;DHT22;9975;48.046;7.804;2023-10-09T09:05:59;16.20;99.90
19654;DHT22;9975;48.046;7.804;2023-10-09T09:08:33;16.50;99.90
19654;DHT22;9975;48.046;7.804;2023-10-09T09:11:03;16.80;99.90
19654;DHT22;9975;48.046;7.804;2023-10-09T09:16:23;17.30;99.90
19654;DHT22;9975;48.046;7.804;2023-10-09T09:18:57;17.50;99.90
19654;DHT22;9975;48.046;7.804;2023-10-09T09:21:31;17.70;99.90
19654;DHT22;9975;48.046;7.804;2023-10-09T09:24:02;18.00;99.90
19654;DHT22;9975;48.046;7.804;2023-10-09T09:26:36;18.20;99.90
19654;DHT22;9975;48.046;7.804;2023-10-09T09:29:04;18.40;99.90
19654;DHT22;9975;48.046;7.804;2023-10-09T09:31:31;18.70;99.90
19654;DHT22;9975;48.046;7.804;2023-10-09T09:34:06;19.00;99.90
19654;DHT22;9975;48.046;7.804;2023-10-09T09:36:52;19.30;99.90
19654;DHT22;9975;48.046;7.804;2023-10-09T09:39:36;19.60;99.90
19654;DHT22;9975;48.046;7.804;2023-10-09T09:42:02;19.80;99.90
19654;DHT22;9975;48.046;7.804;2023-10-09T09:44:39;20.10;99.90
19654;DHT22;9975;48.046;7.804;2023-10-09T09:47:15;20.40;99.90
19654;DHT22;9975;48.046;7.804;2023-10-09T09:50:01;20.70;99.90
19654;DHT22;9975;48.046;7.804;2023-10-09T09:52:48;20.90;99.90
19654;DHT22;9975;48.046;7.804;2023-10-09T09:55:15;21.00;99.90
19654;DHT22;9975;48.046;7.804;2023-10-09T09:57:50;21.10;99.40
19654;DHT22;9975;48.046;7.804;2023-10-09T10:00:21;21.30;98.20
19654;DHT22;9975;48.046;7.804;2023-10-09T10:03:10;21.40;97.70
19654;DHT22;9975;48.046;7.804;2023-10-09T10:05:38;21.60;96.40
19654;DHT22;9975;48.046;7.804;2023-10-09T10:08:06;21.70;96.30
19654;DHT22;9975;48.046;7.804;2023-10-09T10:10:39;21.70;96.10
19654;DHT22;9975;48.046;7.804;2023-10-09T10:13:13;21.70;95.40
19654;DHT22;9975;48.046;7.804;2023-10-09T10:15:59;21.80;93.60
19654;DHT22;9975;48.046;7.804;2023-10-09T10:21:18;22.00;92.80
19654;DHT22;9975;48.046;7.804;2023-10-09T10:24:01;22.00;93.20
19654;DHT22;9975;48.046;7.804;2023-10-09T10:26:37;21.90;91.10
19654;DHT22;9975;48.046;7.804;2023-10-09T10:32:03;22.30;87.70
19654;DHT22;9975;48.046;7.804;2023-10-09T10:37:15;22.80;83.40
19654;DHT22;9975;48.046;7.804;2023-10-09T10:39:51;22.90;84.40
19654;DHT22;9975;48.046;7.804;2023-10-09T10:42:16;22.90;84.50
19654;DHT22;9975;48.046;7.804;2023-10-09T10:45:01;23.00;82.30
19654;DHT22;9975;48.046;7.804;2023-10-09T10:47:50;23.20;78.30
19654;DHT22;9975;48.046;7.804;2023-10-09T10:50:17;23.30;80.30
19654;DHT22;9975;48.046;7.804;2023-10-09T10:53:28;23.50;77.80
19654;DHT22;9975;48.046;7.804;2023-10-09T10:56:02;23.60;76.60
19654;DHT22;9975;48.046;7.804;2023-10-09T10:58:40;23.70;75.00
19654;DHT22;9975;48.046;7.804;2023-10-09T11:01:35;23.70;75.50
19654;DHT22;9975;48.046;7.804;2023-10-09T11:04:26;23.90;80.40
19654;DHT22;9975;48.046;7.804;2023-10-09T11:07:02;23.90;76.00
19654;DHT22;9975;48.046;7.804;2023-10-09T11:09:56;24.10;81.90
19654;DHT22;9975;48.046;7.804;2023-10-09T11:12:43;24.10;77.30
19654;DHT22;9975;48.046;7.804;2023-10-09T11:15:31;24.30;80.50
19654;DHT22;9975;48.046;7.804;2023-10-09T11:18:09;24.40;78.70
19654;DHT22;9975;48.046;7.804;2023-10-09T11:20:48;24.50;70.80
19654;DHT22;9975;48.046;7.804;2023-10-09T11:23:30;24.60;70.20
19654;DHT22;9975;48.046;7.804;2023-10-09T11:25:59;24.60;67.40
19654;DHT22;9975;48.046;7.804;2023-10-09T11:28:45;24.80;70.90
19654;DHT22;9975;48.046;7.804;2023-10-09T11:31:23;24.70;61.90
19654;DHT22;9975;48.046;7.804;2023-10-09T11:33:52;24.80;68.80
19654;DHT22;9975;48.046;7.804;2023-10-09T11:36:20;24.90;62.80
19654;DHT22;9975;48.046;7.804;2023-10-09T11:39:00;24.70;60.40
19654;DHT22;9975;48.046;7.804;2023-10-09T11:41:49;24.70;60.40
19654;DHT22;9975;48.046;7.804;2023-10-09T11:44:34;24.80;59.80
19654;DHT22;9975;48.046;7.804;2023-10-09T11:47:01;24.80;60.30
19654;DHT22;9975;48.046;7.804;2023-10-09T11:49:52;24.80;59.40
19654;DHT22;9975;48.046;7.804;2023-10-09T11:52:29;24.70;59.10
19654;DHT22;9975;48.046;7.804;2023-10-09T11:55:05;24.80;61.30
19654;DHT22;9975;48.046;7.804;2023-10-09T11:57:51;24.90;59.10
19654;DHT22;9975;48.046;7.804;2023-10-09T12:00:16;24.90;57.20
19654;DHT22;9975;48.046;7.804;2023-10-09T12:02:55;25.00;57.70
19654;DHT22;9975;48.046;7.804;2023-10-09T12:05:21;25.00;57.20
19654;DHT22;9975;48.046;7.804;2023-10-09T12:07:48;25.00;56.00
19654;DHT22;9975;48.046;7.804;2023-10-09T12:10:21;25.10;57.50
19654;DHT22;9975;48.046;7.804;2023-10-09T12:12:52;25.30;59.80
19654;DHT22;9975;48.046;7.804;2023-10-09T12:15:18;25.40;62.80
19654;DHT22;9975;48.046;7.804;2023-10-09T12:17:45;25.50;59.40
19654;DHT22;9975;48.046;7.804;2023-10-09T12:20:13;25.50;56.30
19654;DHT22;9975;48.046;7.804;2023-10-09T12:22:59;25.50;58.80
19654;DHT22;9975;48.046;7.804;2023-10-09T12:25:25;25.50;62.90
19654;DHT22;9975;48.046;7.804;2023-10-09T12:27:51;25.50;63.00
19654;DHT22;9975;48.046;7.804;2023-10-09T12:30:20;25.50;65.70
19654;DHT22;9975;48.046;7.804;2023-10-09T12:32:56;25.60;68.70
19654;DHT22;9975;48.046;7.804;2023-10-09T12:35:23;25.60;68.90
19654;DHT22;9975;48.046;7.804;2023-10-09T12:37:51;25.60;71.00
19654;DHT22;9975;48.046;7.804;2023-10-09T12:40:17;25.60;69.70
19654;DHT22;9975;48.046;7.804;2023-10-09T12:42:52;25.70;71.50
19654;DHT22;9975;48.046;7.804;2023-10-09T12:45:21;25.90;68.40
19654;DHT22;9975;48.046;7.804;2023-10-09T12:47:56;26.00;61.30
19654;DHT22;9975;48.046;7.804;2023-10-09T12:50:36;26.00;59.40
19654;DHT22;9975;48.046;7.804;2023-10-09T12:53:10;26.00;58.30
19654;DHT22;9975;48.046;7.804;2023-10-09T12:55:39;25.90;57.10
19654;DHT22;9975;48.046;7.804;2023-10-09T12:58:07;26.00;59.10
19654;DHT22;9975;48.046;7.804;2023-10-09T13:00:34;26.20;59.30
19654;DHT22;9975;48.046;7.804;2023-10-09T13:03:06;26.20;57.30
19654;DHT22;9975;48.046;7.804;2023-10-09T13:05:51;26.50;55.00
19654;DHT22;9975;48.046;7.804;2023-10-09T13:08:27;26.70;55.80
19654;DHT22;9975;48.046;7.804;2023-10-09T13:11:07;26.90;56.60
19654;DHT22;9975;48.046;7.804;2023-10-09T13:13:41;27.30;55.40
19654;DHT22;9975;48.046;7.804;2023-10-09T13:16:09;27.30;52.10
19654;DHT22;9975;48.046;7.804;2023-10-09T13:18:46;27.60;55.10
19654;DHT22;9975;48.046;7.804;2023-10-09T13:21:16;27.70;51.40
19654;DHT22;9975;48.046;7.804;2023-10-09T13:23:42;27.60;49.10
19654;DHT22;9975;48.046;7.804;2023-10-09T13:26:15;27.40;51.50
19654;DHT22;9975;48.046;7.804;2023-10-09T13:28:54;27.50;51.60
19654;DHT22;9975;48.046;7.804;2023-10-09T13:31:21;27.60;53.60
19654;DHT22;9975;48.046;7.804;2023-10-09T13:33:47;27.60;50.30
19654;DHT22;9975;48.046;7.804;2023-10-09T13:36:14;27.60;50.10
19654;DHT22;9975;48.046;7.804;2023-10-09T13:38:55;27.70;49.70
19654;DHT22;9975;48.046;7.804;2023-10-09T13:41:22;27.80;47.00
19654;DHT22;9975;48.046;7.804;2023-10-09T13:43:51;27.90;50.10
19654;DHT22;9975;48.046;7.804;2023-10-09T13:46:17;28.10;51.30
19654;DHT22;9975;48.046;7.804;2023-10-09T13:48:44;28.10;49.70
19654;DHT22;9975;48.046;7.804;2023-10-09T13:51:11;28.00;45.70
19654;DHT22;9975;48.046;7.804;2023-10-09T13:53:44;27.70;46.80
19654;DHT22;9975;48.046;7.804;2023-10-09T13:56:17;27.60;47.20
19654;DHT22;9975;48.046;7.804;2023-10-09T13:58:47;27.40;45.40
19654;DHT22;9975;48.046;7.804;2023-10-09T14:01:15;27.40;45.80
19654;DHT22;9975;48.046;7.804;2023-10-09T14:03:55;27.40;47.80
19654;DHT22;9975;48.046;7.804;2023-10-09T14:06:21;27.50;51.60
19654;DHT22;9975;48.046;7.804;2023-10-09T14:09:03;27.30;48.30
19654;DHT22;9975;48.046;7.804;2023-10-09T14:11:34;27.30;49.50
19654;DHT22;9975;48.046;7.804;2023-10-09T14:14:04;27.30;48.70
19654;DHT22;9975;48.046;7.804;2023-10-09T14:16:38;27.10;48.70
19654;DHT22;9975;48.046;7.804;2023-10-09T14:19:08;27.20;52.70
19654;DHT22;9975;48.046;7.804;2023-10-09T14:21:38;27.20;54.20
19654;DHT22;9975;48.046;7.804;2023-10-09T14:24:06;27.20;51.00
19654;DHT22;9975;48.046;7.804;2023-10-09T14:26:42;27.20;53.10
19654;DHT22;9975;48.046;7.804;2023-10-09T14:29:07;27.30;54.40
19654;DHT22;9975;48.046;7.804;2023-10-09T14:31:33;27.20;55.20
19654;DHT22;9975;48.046;7.804;2023-10-09T14:34:04;27.10;53.70
19654;DHT22;9975;48.046;7.804;2023-10-09T14:36:30;27.00;56.10
19654;DHT22;9975;48.046;7.804;2023-10-09T14:38:59;26.90;55.10
19654;DHT22;9975;48.046;7.804;2023-10-09T14:41:26;26.90;55.00
19654;DHT22;9975;48.046;7.804;2023-10-09T14:43:53;26.90;57.20
19654;DHT22;9975;48.046;7.804;2023-10-09T14:46:19;27.00;58.80
19654;DHT22;9975;48.046;7.804;2023-10-09T14:48:51;26.90;56.30
19654;DHT22;9975;48.046;7.804;2023-10-09T14:51:19;26.70;58.30
19654;DHT22;9975;48.046;7.804;2023-10-09T14:53:53;26.70;59.00
19654;DHT22;9975;48.046;7.804;2023-10-09T14:56:18;26.70;63.00
19654;DHT22;9975;48.046;7.804;2023-10-09T14:58:57;26.70;61.60
19654;DHT22;9975;48.046;7.804;2023-10-09T15:01:26;26.60;62.00
19654;DHT22;9975;48.046;7.804;2023-10-09T15:03:57;26.60;64.80
19654;DHT22;9975;48.046;7.804;2023-10-09T15:06:26;26.60;64.20
19654;DHT22;9975;48.046;7.804;2023-10-09T15:08:58;26.50;66.80
19654;DHT22;9975;48.046;7.804;2023-10-09T15:11:26;26.40;67.30
19654;DHT22;9975;48.046;7.804;2023-10-09T15:13:55;26.30;67.30
19654;DHT22;9975;48.046;7.804;2023-10-09T15:16:21;26.30;68.80
19654;DHT22;9975;48.046;7.804;2023-10-09T15:18:58;26.20;69.40
19654;DHT22;9975;48.046;7.804;2023-10-09T15:21:40;26.20;67.80
19654;DHT22;9975;48.046;7.804;2023-10-09T15:24:15;26.10;66.70
19654;DHT22;9975;48.046;7.804;2023-10-09T15:26:48;26.10;69.10
19654;DHT22;9975;48.046;7.804;2023-10-09T15:29:24;26.00;66.70
19654;DHT22;9975;48.046;7.804;2023-10-09T15:51:40;25.90;69.30
19654;DHT22;9975;48.046;7.804;2023-10-09T15:54:09;25.10;83.60
19654;DHT22;9975;48.046;7.804;2023-10-09T15:56:36;25.00;86.30
19654;DHT22;9975;48.046;7.804;2023-10-09T16:08:52;25.00;88.40
19654;DHT22;9975;48.046;7.804;2023-10-09T16:11:22;24.50;92.20
19654;DHT22;9975;48.046;7.804;2023-10-09T16:13:53;24.40;92.60
19654;DHT22;9975;48.046;7.804;2023-10-09T16:16:30;24.30;92.60
19654;DHT22;9975;48.046;7.804;2023-10-09T16:18:58;24.20;93.10
19654;DHT22;9975;48.046;7.804;2023-10-09T16:21:24;24.10;93.90
19654;DHT22;9975;48.046;7.804;2023-10-09T16:23:51;24.10;94.30
19654;DHT22;9975;48.046;7.804;2023-10-09T16:26:17;23.90;94.50
19654;DHT22;9975;48.046;7.804;2023-10-09T16:28:43;23.70;95.40
19654;DHT22;9975;48.046;7.804;2023-10-09T16:31:10;23.60;96.10
19654;DHT22;9975;48.046;7.804;2023-10-09T16:33:44;23.50;96.90
19654;DHT22;9975;48.046;7.804;2023-10-09T16:36:10;23.40;97.90
19654;DHT22;9975;48.046;7.804;2023-10-09T16:38:35;23.40;98.80
19654;DHT22;9975;48.046;7.804;2023-10-09T16:41:05;23.20;98.70
19654;DHT22;9975;48.046;7.804;2023-10-09T16:43:34;23.10;99.60
19654;DHT22;9975;48.046;7.804;2023-10-09T16:46:03;23.00;99.90
19654;DHT22;9975;48.046;7.804;2023-10-09T16:48:34;22.80;99.90
19654;DHT22;9975;48.046;7.804;2023-10-09T16:51:03;22.70;99.90
19654;DHT22;9975;48.046;7.804;2023-10-09T16:53:31;22.60;99.90
19654;DHT22;9975;48.046;7.804;2023-10-09T16:56:05;22.50;99.90
19654;DHT22;9975;48.046;7.804;2023-10-09T16:58:37;22.30;99.90
19654;DHT22;9975;48.046;7.804;2023-10-09T17:01:04;22.20;99.90
19654;DHT22;9975;48.046;7.804;2023-10-09T17:03:38;22.00;99.90
19654;DHT22;9975;48.046;7.804;2023-10-09T17:06:11;21.80;99.90
19654;DHT22;9975;48.046;7.804;2023-10-09T17:08:38;21.70;99.90
19654;DHT22;9975;48.046;7.804;2023-10-09T17:11:11;21.50;99.90
19654;DHT22;9975;48.046;7.804;2023-10-09T17:13:39;21.40;99.90
19654;DHT22;9975;48.046;7.804;2023-10-09T17:16:20;21.20;99.90
19654;DHT22;9975;48.046;7.804;2023-10-09T17:18:51;21.10;99.90
19654;DHT22;9975;48.046;7.804;2023-10-09T17:21:19;21.00;99.90
19654;DHT22;9975;48.046;7.804;2023-10-09T17:23:49;20.90;99.90
19654;DHT22;9975;48.046;7.804;2023-10-09T17:26:16;20.80;99.90
19654;DHT22;9975;48.046;7.804;2023-10-09T17:28:48;20.70;99.90
19654;DHT22;9975;48.046;7.804;2023-10-09T17:31:14;20.60;99.90
19654;DHT22;9975;48.046;7.804;2023-10-09T17:33:45;20.60;99.90
19654;DHT22;9975;48.046;7.804;2023-10-09T17:36:11;20.70;99.90
19654;DHT22;9975;48.046;7.804;2023-10-09T17:38:37;20.60;99.90
19654;DHT22;9975;48.046;7.804;2023-10-09T17:41:06;20.50;99.90
19654;DHT22;9975;48.046;7.804;2023-10-09T17:43:34;20.40;99.90
19654;DHT22;9975;48.046;7.804;2023-10-09T17:46:01;20.30;99.90
19654;DHT22;9975;48.046;7.804;2023-10-09T17:48:29;20.20;99.90
19654;DHT22;9975;48.046;7.804;2023-10-09T17:50:56;20.30;99.90
19654;DHT22;9975;48.046;7.804;2023-10-09T17:53:22;20.30;99.90
19654;DHT22;9975;48.046;7.804;2023-10-09T17:55:52;20.10;99.90
19654;DHT22;9975;48.046;7.804;2023-10-09T17:58:18;20.10;99.90
19654;DHT22;9975;48.046;7.804;2023-10-09T18:00:52;20.10;99.90
19654;DHT22;9975;48.046;7.804;2023-10-09T18:03:18;20.00;99.90
19654;DHT22;9975;48.046;7.804;2023-10-09T18:05:46;19.90;99.90
19654;DHT22;9975;48.046;7.804;2023-10-09T18:08:11;19.70;99.90
19654;DHT22;9975;48.046;7.804;2023-10-09T18:10:41;19.50;99.90
19654;DHT22;9975;48.046;7.804;2023-10-09T18:13:10;19.60;99.90
19654;DHT22;9975;48.046;7.804;2023-10-09T18:15:37;19.50;99.90
19654;DHT22;9975;48.046;7.804;2023-10-09T18:18:04;19.40;99.90
19654;DHT22;9975;48.046;7.804;2023-10-09T18:20:40;19.30;99.90
19654;DHT22;9975;48.046;7.804;2023-10-09T18:23:05;19.20;99.90
19654;DHT22;9975;48.046;7.804;2023-10-09T18:25:31;19.10;99.90
19654;DHT22;9975;48.046;7.804;2023-10-09T18:27:57;18.90;99.90
19654;DHT22;9975;48.046;7.804;2023-10-09T18:30:22;18.80;99.90
19654;DHT22;9975;48.046;7.804;2023-10-09T18:32:52;18.80;99.90
19654;DHT22;9975;48.046;7.804;2023-10-09T18:35:22;18.80;99.90
19654;DHT22;9975;48.046;7.804;2023-10-09T18:37:48;18.70;99.90
19654;DHT22;9975;48.046;7.804;2023-10-09T18:40:16;18.60;99.90
19654;DHT22;9975;48.046;7.804;2023-10-09T18:42:46;18.50;99.90
19654;DHT22;9975;48.046;7.804;2023-10-09T18:45:13;18.50;99.90
19654;DHT22;9975;48.046;7.804;2023-10-09T18:47:40;18.40;99.90
19654;DHT22;9975;48.046;7.804;2023-10-09T18:50:10;18.40;99.90
19654;DHT22;9975;48.046;7.804;2023-10-09T18:52:39;18.30;99.90
19654;DHT22;9975;48.046;7.804;2023-10-09T18:55:09;18.30;99.90
19654;DHT22;9975;48.046;7.804;2023-10-09T18:57:37;18.20;99.90
19654;DHT22;9975;48.046;7.804;2023-10-09T19:00:04;18.10;99.90
19654;DHT22;9975;48.046;7.804;2023-10-09T19:02:34;18.00;99.90
19654;DHT22;9975;48.046;7.804;2023-10-09T19:04:59;17.90;99.90
19654;DHT22;9975;48.046;7.804;2023-10-09T19:07:25;17.90;99.90
19654;DHT22;9975;48.046;7.804;2023-10-09T19:09:53;17.80;99.90
19654;DHT22;9975;48.046;7.804;2023-10-09T19:12:20;17.70;99.90
19654;DHT22;9975;48.046;7.804;2023-10-09T19:14:46;17.70;99.90
19654;DHT22;9975;48.046;7.804;2023-10-09T19:17:13;17.70;99.90
19654;DHT22;9975;48.046;7.804;2023-10-09T19:19:40;17.60;99.90
19654;DHT22;9975;48.046;7.804;2023-10-09T19:22:05;17.60;99.90
19654;DHT22;9975;48.046;7.804;2023-10-09T19:24:32;17.60;99.90
19654;DHT22;9975;48.046;7.804;2023-10-09T19:27:00;17.50;99.90
19654;DHT22;9975;48.046;7.804;2023-10-09T19:29:26;17.40;99.90
19654;DHT22;9975;48.046;7.804;2023-10-09T19:31:52;17.30;99.90
19654;DHT22;9975;48.046;7.804;2023-10-09T19:34:19;17.20;99.90
19654;DHT22;9975;48.046;7.804;2023-10-09T19:36:44;17.20;99.90
19654;DHT22;9975;48.046;7.804;2023-10-09T19:39:12;17.10;99.90
19654;DHT22;9975;48.046;7.804;2023-10-09T19:41:42;17.00;99.90
19654;DHT22;9975;48.046;7.804;2023-10-09T19:44:08;17.00;99.90
19654;DHT22;9975;48.046;7.804;2023-10-09T19:46:34;16.90;99.90
19654;DHT22;9975;48.046;7.804;2023-10-09T19:49:04;16.80;99.90
19654;DHT22;9975;48.046;7.804;2023-10-09T19:51:30;16.70;99.90
19654;DHT22;9975;48.046;7.804;2023-10-09T19:53:57;16.60;99.90
19654;DHT22;9975;48.046;7.804;2023-10-09T19:56:25;16.70;99.90
19654;DHT22;9975;48.046;7.804;2023-10-09T19:58:52;16.60;99.90
19654;DHT22;9975;48.046;7.804;2023-10-09T20:01:24;16.50;99.90
19654;DHT22;9975;48.046;7.804;2023-10-09T20:03:51;16.30;99.90
19654;DHT22;9975;48.046;7.804;2023-10-09T20:06:17;16.30;99.90
19654;DHT22;9975;48.046;7.804;2023-10-09T20:08:44;16.30;99.90
19654;DHT22;9975;48.046;7.804;2023-10-09T20:11:13;16.30;99.90
19654;DHT22;9975;48.046;7.804;2023-10-09T20:13:40;16.20;99.90
19654;DHT22;9975;48.046;7.804;2023-10-09T20:16:07;16.20;99.90
19654;DHT22;9975;48.046;7.804;2023-10-09T20:18:36;16.20;99.90
19654;DHT22;9975;48.046;7.804;2023-10-09T20:21:03;16.10;99.90
19654;DHT22;9975;48.046;7.804;2023-10-09T20:23:36;16.10;99.90
19654;DHT22;9975;48.046;7.804;2023-10-09T20:26:04;16.00;99.90
19654;DHT22;9975;48.046;7.804;2023-10-09T20:28:31;16.00;99.90
19654;DHT22;9975;48.046;7.804;2023-10-09T20:30:58;16.00;99.90
19654;DHT22;9975;48.046;7.804;2023-10-09T20:33:27;15.90;99.90
19654;DHT22;9975;48.046;7.804;2023-10-09T20:36:05;15.90;99.90
19654;DHT22;9975;48.046;7.804;2023-10-09T20:38:31;16.00;99.90
19654;DHT22;9975;48.046;7.804;2023-10-09T20:40:57;16.00;99.90
19654;DHT22;9975;48.046;7.804;2023-10-09T20:43:22;16.00;99.90
19654;DHT22;9975;48.046;7.804;2023-10-09T20:45:48;15.80;99.90
19654;DHT22;9975;48.046;7.804;2023-10-09T20:48:13;15.70;99.90
19654;DHT22;9975;48.046;7.804;2023-10-09T20:50:42;15.60;99.90
19654;DHT22;9975;48.046;7.804;2023-10-09T20:53:09;15.50;99.90
19654;DHT22;9975;48.046;7.804;2023-10-09T20:55:35;15.50;99.90
19654;DHT22;9975;48.046;7.804;2023-10-09T20:58:02;15.40;99.90
19654;DHT22;9975;48.046;7.804;2023-10-09T21:00:29;15.30;99.90
19654;DHT22;9975;48.046;7.804;2023-10-09T21:02:57;15.30;99.90
19654;DHT22;9975;48.046;7.804;2023-10-09T21:05:24;15.30;99.90
19654;DHT22;9975;48.046;7.804;2023-10-09T21:07:51;15.40;99.90
19654;DHT22;9975;48.046;7.804;2023-10-09T21:10:19;15.20;99.90
19654;DHT22;9975;48.046;7.804;2023-10-09T21:12:47;15.20;99.90
19654;DHT22;9975;48.046;7.804;2023-10-09T21:15:17;15.00;99.90
19654;DHT22;9975;48.046;7.804;2023-10-09T21:17:46;15.00;99.90
19654;DHT22;9975;48.046;7.804;2023-10-09T21:20:13;14.90;99.90
19654;DHT22;9975;48.046;7.804;2023-10-09T21:22:48;14.80;99.90
19654;DHT22;9975;48.046;7.804;2023-10-09T21:25:25;14.80;99.90
19654;DHT22;9975;48.046;7.804;2023-10-09T21:27:51;14.70;99.90
19654;DHT22;9975;48.046;7.804;2023-10-09T21:30:20;14.70;99.90
19654;DHT22;9975;48.046;7.804;2023-10-09T21:32:46;14.70;99.90
19654;DHT22;9975;48.046;7.804;2023-10-09T21:35:18;14.80;99.90
19654;DHT22;9975;48.046;7.804;2023-10-09T21:37:49;14.70;99.90
19654;DHT22;9975;48.046;7.804;2023-10-09T21:40:18;14.50;99.90
19654;DHT22;9975;48.046;7.804;2023-10-09T21:42:49;14.60;99.90
19654;DHT22;9975;48.046;7.804;2023-10-09T21:45:19;14.60;99.90
19654;DHT22;9975;48.046;7.804;2023-10-09T21:47:46;14.50;99.90
19654;DHT22;9975;48.046;7.804;2023-10-09T21:50:12;14.40;99.90
19654;DHT22;9975;48.046;7.804;2023-10-09T21:52:37;14.40;99.90
19654;DHT22;9975;48.046;7.804;2023-10-09T21:55:06;14.30;99.90
19654;DHT22;9975;48.046;7.804;2023-10-09T21:57:34;14.20;99.90
19654;DHT22;9975;48.046;7.804;2023-10-09T21:59:59;14.10;99.90
19654;DHT22;9975;48.046;7.804;2023-10-09T22:02:25;14.10;99.90
19654;DHT22;9975;48.046;7.804;2023-10-09T22:04:56;14.10;99.90
19654;DHT22;9975;48.046;7.804;2023-10-09T22:07:22;14.10;99.90
19654;DHT22;9975;48.046;7.804;2023-10-09T22:09:48;14.10;99.90
19654;DHT22;9975;48.046;7.804;2023-10-09T22:12:13;14.00;99.90
19654;DHT22;9975;48.046;7.804;2023-10-09T22:14:40;13.90;99.90
19654;DHT22;9975;48.046;7.804;2023-10-09T22:17:06;13.90;99.90
19654;DHT22;9975;48.046;7.804;2023-10-09T22:19:33;13.90;99.90
19654;DHT22;9975;48.046;7.804;2023-10-09T22:22:02;13.80;99.90
19654;DHT22;9975;48.046;7.804;2023-10-09T22:24:39;13.80;99.90
19654;DHT22;9975;48.046;7.804;2023-10-09T22:27:07;13.70;99.90
19654;DHT22;9975;48.046;7.804;2023-10-09T22:29:36;13.60;99.90
19654;DHT22;9975;48.046;7.804;2023-10-09T22:32:06;13.60;99.90
19654;DHT22;9975;48.046;7.804;2023-10-09T22:34:33;13.60;99.90
19654;DHT22;9975;48.046;7.804;2023-10-09T22:37:02;13.60;99.90
19654;DHT22;9975;48.046;7.804;2023-10-09T22:39:38;13.50;99.90
19654;DHT22;9975;48.046;7.804;2023-10-09T22:42:07;13.50;99.90
19654;DHT22;9975;48.046;7.804;2023-10-09T22:44:33;13.40;99.90
19654;DHT22;9975;48.046;7.804;2023-10-09T22:47:00;13.30;99.90
19654;DHT22;9975;48.046;7.804;2023-10-09T22:49:33;13.30;99.90
19654;DHT22;9975;48.046;7.804;2023-10-09T22:52:03;13.30;99.90
19654;DHT22;9975;48.046;7.804;2023-10-09T22:54:37;13.30;99.90
19654;DHT22;9975;48.046;7.804;2023-10-09T22:57:03;13.30;99.90
19654;DHT22;9975;48.046;7.804;2023-10-09T22:59:31;13.20;99.90
19654;DHT22;9975;48.046;7.804;2023-10-09T23:01:57;13.20;99.90
19654;DHT22;9975;48.046;7.804;2023-10-09T23:04:26;13.20;99.90
19654;DHT22;9975;48.046;7.804;2023-10-09T23:07:14;13.20;99.90
19654;DHT22;9975;48.046;7.804;2023-10-09T23:09:44;13.10;99.90
19654;DHT22;9975;48.046;7.804;2023-10-09T23:12:21;13.00;99.90
19654;DHT22;9975;48.046;7.804;2023-10-09T23:14:49;12.90;99.90
19654;DHT22;9975;48.046;7.804;2023-10-09T23:17:16;12.90;99.90
19654;DHT22;9975;48.046;7.804;2023-10-09T23:19:48;12.80;99.90
19654;DHT22;9975;48.046;7.804;2023-10-09T23:22:23;12.80;99.90
19654;DHT22;9975;48.046;7.804;2023-10-09T23:24:57;12.80;99.90
19654;DHT22;9975;48.046;7.804;2023-10-09T23:27:34;12.80;99.90
19654;DHT22;9975;48.046;7.804;2023-10-09T23:30:14;12.80;99.90
19654;DHT22;9975;48.046;7.804;2023-10-09T23:32:55;12.70;99.90
19654;DHT22;9975;48.046;7.804;2023-10-09T23:35:37;12.60;99.90
